Create Custom Reports and Graphics: Custom Report

Anza Map

Map

10 Minute Data

Latest Observation

23 Stations

10 Minute Data | America/Los_Angeles
as of 6/25/22 7:48 PM PDT
Station Date Time Temp (°F) Dew Pt (°F) RH (%) Wind Spd (mph) Wind Dir (°) Wind Gust (mph) Wind Gst Dir (°) Daily Max Temp (°F) Daily Min Temp (°F) Daily Max Wind (mph) Max Wind Dir (°)
Thomas Mountain 6/25/22 1940 77.4   3.4 10.8   28.2 8   20 1.1 WNW | 282 5.1 W | 275 87.2 63.0 23.7 WSW | 252
Red Mountain 6/25/22 1940 76.2   1.0 13.7   27.4 9   20 3.8 WSW | 251 5.2 WSW | 257 86.9 68.7 22.2 WSW | 238
Coyote Canyon 6/25/22 1940 80.8   2.0 13.3   25.0 8   16 10.2 WNW | 291 14.0 WNW | 287 93.5 66.4 25.0 W | 276
Pinyon 6/25/22 1940 82.9   2.8 13.8   25.7 7   16 10.6 SW | 229 16.4 SW | 227 89.9 73.4 22.8 SW | 236
Aguanga Barbara Trail 6/25/22 1940 80.4   0.9 15.0   23.4 8   14 5.4 NNW | 331 9.5 N | 349 90.4 59.8 23.7 W | 280
SCE Idyllwild Ridge 6/25/22 1940 74.6   2.7 22.4   14.1 14   13 0.0 S | 180 1.0 S | 175 84.5 59.8 9.1 S | 179
SCE Idyllwild Hwy 6/25/22 1940 87.7   0.2 26.9   15.7 11   9 1.0 NW | 324 2.6 NW | 326 98.3 64.8 16.4 N | 350
SCE Apple Canyon 6/25/22 1940 74.1   1.1 22.6   14.0 14   12 1.6 WNW | 293 6.6 WNW | 284 86.5 64.1 18.3 W | 269
SCE Keen Ridge 6/25/22 1940 75.0   1.2 23.1   13.5 14   11 10.3 WNW | 285 14.0 WNW | 284 82.9 64.6 24.0 NW | 317
SCE Aguanga 6/25/22 1940 86.2   0.0 23.7   12.5 10   7 6.9 NNW | 345 10.3 N | 351 96.1 67.8 23.1 NNW | 327
SCE Butterfield Valley 6/25/22 1940 85.5   2.7 34.4   5.5 16   2 3.7 NNW | 344 6.9 NNW | 347 100.1 59.8 27.6 WNW | 290
SCE Anza Rd 6/25/22 1940 83.2   0.6 40.5   8.3 22   9 7.7 WSW | 250 13.4 W | 271 96.7 56.9 22.4 WSW | 256
SCE Wilson Valley Rd 6/25/22 1940 81.9   1.6 23.2   20.2 11   13 9.5 NNW | 346 12.8 N | 351 94.6 69.8 19.7 WNW | 282
SCE Weber Valley 6/25/22 1940 79.8   0.3 21.2   23.1 11   17 1.2 WNW | 298 4.3 WNW | 301 92.2 68.4 18.6 W | 281
SCE Red Mountain Rd 6/25/22 1940 78.0   1.5 19.5   25.9 11   19 3.0 S | 171 4.5 SSE | 165 89.7 73.6 20.8 SW | 226
SCE Brown Canyon 6/25/22 1940 86.1   0.9 21.3   24.6 9   15 5.7 WNW | 296 8.4 WNW | 291 98.6 65.0 19.0 NW | 319
SCE Cedar Ave 6/25/22 1940 88.8   0.6 29.2   11.2 12   6 4.5 SSW | 206 6.9 SSW | 201 99.3 64.4 19.1 SSW | 196
SCE Anderson Dr 6/25/22 1940 86.8   2.1 30.5   9.6 13   5 1.4 SW | 233 6.1 SW | 229 100.4 67.0 16.7 SSW | 207
SCE Pachea Trail 6/25/22 1940 85.1   3.4 28.1   10.9 13   5 8.3 SSW | 198 10.6 S | 186 96.9 72.6 21.2 WSW | 252
SCE Painted Canyon Rd 6/25/22 1940 102.6   1.9 21.0   19.8 5   7 11.2 WSW | 246 18.0 WSW | 240 105.5 79.2 18.0 WSW | 240
Oak Grove 6/25/22 1940 82.4   1.2 26.9   6.4 13   3 6.2 W | 262 8.0 W | 264 95.9 56.6 22.2 WNW | 299
Chihuahua Valley 6/25/22 1940 77.1   0.1 34.8   1.3 22   1 4.1 SSE | 163 6.9 SSE | 153 89.4 59.6 18.6 S | 176
Sunshine Summit 6/25/22 1940 82.0   0.2 25.4   9.7 13   6 4.2 WNW | 292 7.6 WNW | 290 93.6 61.3 20.8 SSW | 207
Max     102.6 40.5 22 11.2 - 18.0 - 105.5 79.2 27.6 -
Avg     82.4 23.5 12 5.3 - 8.7 - - - - -
Min     74.1 10.8 5 0.0 - 1.0 - 82.9 56.6 9.1 -